Terminal Aerodrome Forecast
Issued by NWS Tallahassee, FL

Home | Current Version | Previous Version | Text Only | Print | Product List | Glossary On
Versions: 1 2 3 4 5 6 7 8 9 10 11 12 13 14 15 16 17 18 19 20
000
FTUS42 KTAE 012201 AAA
TAFTLH
TAF AMD
KTLH 012201Z 0122/0218 24008KT P6SM VCTS SCT030CB
      TEMPO 0122/0124 VRB10G18KT 5SM -TSRA BKN050CB
     FM020000 25003KT P6SM SCT250
     FM021700 25009KT P6SM VCTS SCT040CB=

USA.gov is the U.S. government's official web portal to all federal, state and local government web resources and services.